sensor_id;sensor_type;location;lat;lon;timestamp;temperature;humidity
2889;DHT22;1453;42.708;23.282;2023-06-19T00:00:54;17.80;99.90
2889;DHT22;1453;42.708;23.282;2023-06-19T00:03:20;17.70;99.90
2889;DHT22;1453;42.708;23.282;2023-06-19T00:05:46;17.70;99.90
2889;DHT22;1453;42.708;23.282;2023-06-19T00:08:12;17.70;99.90
2889;DHT22;1453;42.708;23.282;2023-06-19T00:10:38;17.70;99.90
2889;DHT22;1453;42.708;23.282;2023-06-19T00:13:03;17.60;99.90
2889;DHT22;1453;42.708;23.282;2023-06-19T00:15:29;17.60;99.90
2889;DHT22;1453;42.708;23.282;2023-06-19T00:17:56;17.60;99.90
2889;DHT22;1453;42.708;23.282;2023-06-19T00:20:23;17.60;99.90
2889;DHT22;1453;42.708;23.282;2023-06-19T00:22:49;17.50;99.90
2889;DHT22;1453;42.708;23.282;2023-06-19T00:25:18;17.50;99.90
2889;DHT22;1453;42.708;23.282;2023-06-19T00:27:45;17.60;99.90
2889;DHT22;1453;42.708;23.282;2023-06-19T00:30:12;17.60;99.90
2889;DHT22;1453;42.708;23.282;2023-06-19T00:32:37;17.50;99.90
2889;DHT22;1453;42.708;23.282;2023-06-19T00:35:15;17.60;99.90
2889;DHT22;1453;42.708;23.282;2023-06-19T00:37:43;17.70;99.90
2889;DHT22;1453;42.708;23.282;2023-06-19T00:40:21;17.70;99.90
2889;DHT22;1453;42.708;23.282;2023-06-19T00:42:52;17.70;99.90
2889;DHT22;1453;42.708;23.282;2023-06-19T00:45:17;17.50;99.90
2889;DHT22;1453;42.708;23.282;2023-06-19T00:47:43;17.30;99.90
2889;DHT22;1453;42.708;23.282;2023-06-19T00:50:10;17.40;99.90
2889;DHT22;1453;42.708;23.282;2023-06-19T00:52:36;17.30;99.90
2889;DHT22;1453;42.708;23.282;2023-06-19T00:55:04;17.30;99.90
2889;DHT22;1453;42.708;23.282;2023-06-19T00:57:30;17.20;99.90
2889;DHT22;1453;42.708;23.282;2023-06-19T00:59:57;17.20;99.90
2889;DHT22;1453;42.708;23.282;2023-06-19T01:02:25;17.20;99.90
2889;DHT22;1453;42.708;23.282;2023-06-19T01:04:51;17.10;99.90
2889;DHT22;1453;42.708;23.282;2023-06-19T01:07:27;17.10;99.90
2889;DHT22;1453;42.708;23.282;2023-06-19T01:10:02;17.10;99.90
2889;DHT22;1453;42.708;23.282;2023-06-19T01:12:36;17.10;99.90
2889;DHT22;1453;42.708;23.282;2023-06-19T01:15:05;17.10;99.90
2889;DHT22;1453;42.708;23.282;2023-06-19T01:17:32;17.00;99.90
2889;DHT22;1453;42.708;23.282;2023-06-19T01:19:59;17.00;99.90
2889;DHT22;1453;42.708;23.282;2023-06-19T01:22:29;17.00;99.90
2889;DHT22;1453;42.708;23.282;2023-06-19T01:24:56;17.00;99.90
2889;DHT22;1453;42.708;23.282;2023-06-19T01:27:24;16.90;99.90
2889;DHT22;1453;42.708;23.282;2023-06-19T01:29:51;16.90;99.90
2889;DHT22;1453;42.708;23.282;2023-06-19T01:32:31;17.00;99.90
2889;DHT22;1453;42.708;23.282;2023-06-19T01:35:04;17.00;99.90
2889;DHT22;1453;42.708;23.282;2023-06-19T01:37:30;16.80;99.90
2889;DHT22;1453;42.708;23.282;2023-06-19T01:39:59;16.90;99.90
2889;DHT22;1453;42.708;23.282;2023-06-19T01:42:28;16.90;99.90
2889;DHT22;1453;42.708;23.282;2023-06-19T01:44:54;16.90;99.90
2889;DHT22;1453;42.708;23.282;2023-06-19T01:47:20;17.00;99.90
2889;DHT22;1453;42.708;23.282;2023-06-19T01:52:52;17.20;99.90
2889;DHT22;1453;42.708;23.282;2023-06-19T01:55:18;17.20;99.90
2889;DHT22;1453;42.708;23.282;2023-06-19T01:57:44;17.20;99.90
2889;DHT22;1453;42.708;23.282;2023-06-19T02:00:11;17.20;99.90
2889;DHT22;1453;42.708;23.282;2023-06-19T02:02:38;17.20;99.90
2889;DHT22;1453;42.708;23.282;2023-06-19T02:05:04;17.10;99.90
2889;DHT22;1453;42.708;23.282;2023-06-19T02:07:30;17.10;99.90
2889;DHT22;1453;42.708;23.282;2023-06-19T02:09:59;17.10;99.90
2889;DHT22;1453;42.708;23.282;2023-06-19T02:12:25;17.10;99.90
2889;DHT22;1453;42.708;23.282;2023-06-19T02:14:51;16.90;99.90
2889;DHT22;1453;42.708;23.282;2023-06-19T02:17:16;16.70;99.90
2889;DHT22;1453;42.708;23.282;2023-06-19T02:19:42;16.70;99.90
2889;DHT22;1453;42.708;23.282;2023-06-19T02:22:08;16.60;99.90
2889;DHT22;1453;42.708;23.282;2023-06-19T02:24:34;16.50;99.90
2889;DHT22;1453;42.708;23.282;2023-06-19T02:27:00;16.50;99.90
2889;DHT22;1453;42.708;23.282;2023-06-19T02:29:27;16.40;99.90
2889;DHT22;1453;42.708;23.282;2023-06-19T02:31:55;16.40;99.90
2889;DHT22;1453;42.708;23.282;2023-06-19T02:34:21;16.50;99.90
2889;DHT22;1453;42.708;23.282;2023-06-19T02:36:49;16.50;99.90
2889;DHT22;1453;42.708;23.282;2023-06-19T02:39:15;16.50;99.90
2889;DHT22;1453;42.708;23.282;2023-06-19T02:41:41;16.50;99.90
2889;DHT22;1453;42.708;23.282;2023-06-19T02:44:12;16.60;99.90
2889;DHT22;1453;42.708;23.282;2023-06-19T02:46:39;16.60;99.90
2889;DHT22;1453;42.708;23.282;2023-06-19T02:49:05;16.70;99.90
2889;DHT22;1453;42.708;23.282;2023-06-19T02:51:30;16.60;99.90
2889;DHT22;1453;42.708;23.282;2023-06-19T02:53:56;16.60;99.90
2889;DHT22;1453;42.708;23.282;2023-06-19T02:56:23;16.70;99.90
2889;DHT22;1453;42.708;23.282;2023-06-19T02:58:50;16.60;99.90
2889;DHT22;1453;42.708;23.282;2023-06-19T03:01:19;16.50;99.90
2889;DHT22;1453;42.708;23.282;2023-06-19T03:03:45;16.50;99.90
2889;DHT22;1453;42.708;23.282;2023-06-19T03:06:13;16.60;99.90
2889;DHT22;1453;42.708;23.282;2023-06-19T03:08:39;16.50;99.90
2889;DHT22;1453;42.708;23.282;2023-06-19T03:11:06;16.50;99.90
2889;DHT22;1453;42.708;23.282;2023-06-19T03:13:48;16.50;99.90
2889;DHT22;1453;42.708;23.282;2023-06-19T03:16:18;16.30;99.90
2889;DHT22;1453;42.708;23.282;2023-06-19T03:18:45;16.30;99.90
2889;DHT22;1453;42.708;23.282;2023-06-19T03:21:15;16.20;99.90
2889;DHT22;1453;42.708;23.282;2023-06-19T03:23:41;16.20;99.90
2889;DHT22;1453;42.708;23.282;2023-06-19T03:26:08;16.30;99.90
2889;DHT22;1453;42.708;23.282;2023-06-19T03:28:34;16.30;99.90
2889;DHT22;1453;42.708;23.282;2023-06-19T03:31:00;16.30;99.90
2889;DHT22;1453;42.708;23.282;2023-06-19T03:33:26;16.30;99.90
2889;DHT22;1453;42.708;23.282;2023-06-19T03:35:52;16.30;99.90
2889;DHT22;1453;42.708;23.282;2023-06-19T03:38:17;16.40;99.90
2889;DHT22;1453;42.708;23.282;2023-06-19T03:40:43;16.40;99.90
2889;DHT22;1453;42.708;23.282;2023-06-19T03:43:09;16.20;99.90
2889;DHT22;1453;42.708;23.282;2023-06-19T03:45:36;16.30;99.90
2889;DHT22;1453;42.708;23.282;2023-06-19T03:48:02;16.20;99.90
2889;DHT22;1453;42.708;23.282;2023-06-19T03:50:29;16.20;99.90
2889;DHT22;1453;42.708;23.282;2023-06-19T03:52:55;16.20;99.90
2889;DHT22;1453;42.708;23.282;2023-06-19T03:55:20;16.40;99.90
2889;DHT22;1453;42.708;23.282;2023-06-19T03:57:46;16.50;99.90
2889;DHT22;1453;42.708;23.282;2023-06-19T04:00:14;16.50;99.90
2889;DHT22;1453;42.708;23.282;2023-06-19T04:02:40;16.50;99.90
2889;DHT22;1453;42.708;23.282;2023-06-19T04:05:06;16.50;99.90
2889;DHT22;1453;42.708;23.282;2023-06-19T04:07:32;16.50;99.90
2889;DHT22;1453;42.708;23.282;2023-06-19T04:09:58;16.50;99.90
2889;DHT22;1453;42.708;23.282;2023-06-19T04:12:24;16.50;99.90
2889;DHT22;1453;42.708;23.282;2023-06-19T04:14:50;16.60;99.90
2889;DHT22;1453;42.708;23.282;2023-06-19T04:17:17;16.60;99.90
2889;DHT22;1453;42.708;23.282;2023-06-19T04:19:43;16.60;99.90
2889;DHT22;1453;42.708;23.282;2023-06-19T04:22:09;16.70;99.90
2889;DHT22;1453;42.708;23.282;2023-06-19T04:24:35;16.80;99.90
2889;DHT22;1453;42.708;23.282;2023-06-19T04:27:01;16.80;99.90
2889;DHT22;1453;42.708;23.282;2023-06-19T04:29:27;16.80;99.90
2889;DHT22;1453;42.708;23.282;2023-06-19T04:31:58;16.90;99.90
2889;DHT22;1453;42.708;23.282;2023-06-19T04:34:24;16.90;99.90
2889;DHT22;1453;42.708;23.282;2023-06-19T04:36:51;17.00;99.90
2889;DHT22;1453;42.708;23.282;2023-06-19T04:39:17;17.10;99.90
2889;DHT22;1453;42.708;23.282;2023-06-19T04:41:43;17.20;99.90
2889;DHT22;1453;42.708;23.282;2023-06-19T04:44:10;17.30;99.90
2889;DHT22;1453;42.708;23.282;2023-06-19T04:46:38;17.40;99.90
2889;DHT22;1453;42.708;23.282;2023-06-19T04:49:05;17.50;99.90
2889;DHT22;1453;42.708;23.282;2023-06-19T04:51:31;17.70;99.90
2889;DHT22;1453;42.708;23.282;2023-06-19T04:54:00;18.00;99.90
2889;DHT22;1453;42.708;23.282;2023-06-19T04:56:26;18.10;99.90
2889;DHT22;1453;42.708;23.282;2023-06-19T04:58:52;18.00;99.90
2889;DHT22;1453;42.708;23.282;2023-06-19T05:01:21;18.00;99.90
2889;DHT22;1453;42.708;23.282;2023-06-19T05:03:53;18.10;99.90
2889;DHT22;1453;42.708;23.282;2023-06-19T05:06:20;18.10;99.90
2889;DHT22;1453;42.708;23.282;2023-06-19T05:08:47;18.00;99.90
2889;DHT22;1453;42.708;23.282;2023-06-19T05:11:13;18.00;99.90
2889;DHT22;1453;42.708;23.282;2023-06-19T05:13:38;18.00;99.90
2889;DHT22;1453;42.708;23.282;2023-06-19T05:16:04;18.00;99.90
2889;DHT22;1453;42.708;23.282;2023-06-19T05:18:30;18.00;99.90
2889;DHT22;1453;42.708;23.282;2023-06-19T05:20:56;18.00;99.90
2889;DHT22;1453;42.708;23.282;2023-06-19T05:23:22;18.10;99.90
2889;DHT22;1453;42.708;23.282;2023-06-19T05:25:48;18.20;99.90
2889;DHT22;1453;42.708;23.282;2023-06-19T05:28:13;18.10;99.90
2889;DHT22;1453;42.708;23.282;2023-06-19T05:30:39;18.10;99.90
2889;DHT22;1453;42.708;23.282;2023-06-19T05:33:05;18.10;99.90
2889;DHT22;1453;42.708;23.282;2023-06-19T05:35:31;18.20;99.90
2889;DHT22;1453;42.708;23.282;2023-06-19T05:37:57;18.20;99.90
2889;DHT22;1453;42.708;23.282;2023-06-19T05:40:23;18.50;99.90
2889;DHT22;1453;42.708;23.282;2023-06-19T05:42:49;18.60;99.90
2889;DHT22;1453;42.708;23.282;2023-06-19T05:45:14;19.00;99.90
2889;DHT22;1453;42.708;23.282;2023-06-19T05:47:40;19.40;99.90
2889;DHT22;1453;42.708;23.282;2023-06-19T05:50:06;19.60;99.90
2889;DHT22;1453;42.708;23.282;2023-06-19T05:52:32;19.90;99.90
2889;DHT22;1453;42.708;23.282;2023-06-19T05:54:58;20.10;99.90
2889;DHT22;1453;42.708;23.282;2023-06-19T05:57:24;20.40;99.90
2889;DHT22;1453;42.708;23.282;2023-06-19T05:59:50;20.50;99.90
2889;DHT22;1453;42.708;23.282;2023-06-19T06:02:20;20.50;99.90
2889;DHT22;1453;42.708;23.282;2023-06-19T06:04:46;20.60;99.90
2889;DHT22;1453;42.708;23.282;2023-06-19T06:07:12;20.90;99.90
2889;DHT22;1453;42.708;23.282;2023-06-19T06:09:39;20.80;99.90
2889;DHT22;1453;42.708;23.282;2023-06-19T06:12:05;21.00;99.90
2889;DHT22;1453;42.708;23.282;2023-06-19T06:14:31;21.10;99.90
2889;DHT22;1453;42.708;23.282;2023-06-19T06:16:57;20.10;99.90
2889;DHT22;1453;42.708;23.282;2023-06-19T06:19:22;20.50;99.90
2889;DHT22;1453;42.708;23.282;2023-06-19T06:21:49;20.90;99.90
2889;DHT22;1453;42.708;23.282;2023-06-19T06:24:15;21.10;99.90
2889;DHT22;1453;42.708;23.282;2023-06-19T06:26:41;21.60;99.90
2889;DHT22;1453;42.708;23.282;2023-06-19T06:29:08;21.30;99.90
2889;DHT22;1453;42.708;23.282;2023-06-19T06:31:34;21.30;99.90
2889;DHT22;1453;42.708;23.282;2023-06-19T06:34:03;21.70;99.90
2889;DHT22;1453;42.708;23.282;2023-06-19T06:36:29;21.60;99.90
2889;DHT22;1453;42.708;23.282;2023-06-19T06:38:55;21.70;99.90
2889;DHT22;1453;42.708;23.282;2023-06-19T06:41:21;22.20;99.90
2889;DHT22;1453;42.708;23.282;2023-06-19T06:43:46;22.00;99.90
2889;DHT22;1453;42.708;23.282;2023-06-19T06:46:13;22.10;99.90
2889;DHT22;1453;42.708;23.282;2023-06-19T06:48:39;22.10;99.90
2889;DHT22;1453;42.708;23.282;2023-06-19T06:51:05;22.20;99.90
2889;DHT22;1453;42.708;23.282;2023-06-19T06:53:31;22.40;99.90
2889;DHT22;1453;42.708;23.282;2023-06-19T06:55:58;22.20;99.90
2889;DHT22;1453;42.708;23.282;2023-06-19T06:58:25;22.00;99.90
2889;DHT22;1453;42.708;23.282;2023-06-19T07:00:52;22.00;99.90
2889;DHT22;1453;42.708;23.282;2023-06-19T07:03:18;21.70;99.90
2889;DHT22;1453;42.708;23.282;2023-06-19T07:05:44;21.60;99.90
2889;DHT22;1453;42.708;23.282;2023-06-19T07:08:10;22.70;99.90
2889;DHT22;1453;42.708;23.282;2023-06-19T07:10:37;22.80;99.90
2889;DHT22;1453;42.708;23.282;2023-06-19T07:13:02;22.60;99.90
2889;DHT22;1453;42.708;23.282;2023-06-19T07:15:29;23.10;99.90
2889;DHT22;1453;42.708;23.282;2023-06-19T07:17:56;23.60;99.90
2889;DHT22;1453;42.708;23.282;2023-06-19T07:20:22;23.90;99.90
2889;DHT22;1453;42.708;23.282;2023-06-19T07:22:49;23.70;99.90
2889;DHT22;1453;42.708;23.282;2023-06-19T07:25:16;24.30;99.90
2889;DHT22;1453;42.708;23.282;2023-06-19T07:27:42;24.40;98.00
2889;DHT22;1453;42.708;23.282;2023-06-19T07:30:08;24.60;94.80
2889;DHT22;1453;42.708;23.282;2023-06-19T07:32:34;24.60;94.10
2889;DHT22;1453;42.708;23.282;2023-06-19T07:35:00;24.70;93.40
2889;DHT22;1453;42.708;23.282;2023-06-19T07:37:26;24.30;94.40
2889;DHT22;1453;42.708;23.282;2023-06-19T07:39:52;24.30;93.80
2889;DHT22;1453;42.708;23.282;2023-06-19T07:42:19;24.60;93.10
2889;DHT22;1453;42.708;23.282;2023-06-19T07:44:46;24.20;92.70
2889;DHT22;1453;42.708;23.282;2023-06-19T07:47:12;24.90;92.60
2889;DHT22;1453;42.708;23.282;2023-06-19T07:49:39;24.80;92.00
2889;DHT22;1453;42.708;23.282;2023-06-19T07:52:05;25.20;91.80
2889;DHT22;1453;42.708;23.282;2023-06-19T07:54:34;24.10;92.10
2889;DHT22;1453;42.708;23.282;2023-06-19T07:57:00;24.70;92.50
2889;DHT22;1453;42.708;23.282;2023-06-19T07:59:25;24.80;91.80
2889;DHT22;1453;42.708;23.282;2023-06-19T08:01:51;24.80;91.40
2889;DHT22;1453;42.708;23.282;2023-06-19T08:04:17;24.60;90.90
2889;DHT22;1453;42.708;23.282;2023-06-19T08:06:43;24.10;91.20
2889;DHT22;1453;42.708;23.282;2023-06-19T08:09:09;24.30;90.80
2889;DHT22;1453;42.708;23.282;2023-06-19T08:11:35;25.20;91.10
2889;DHT22;1453;42.708;23.282;2023-06-19T08:14:02;25.10;91.20
2889;DHT22;1453;42.708;23.282;2023-06-19T08:16:28;25.30;88.70
2889;DHT22;1453;42.708;23.282;2023-06-19T08:18:54;24.30;87.40
2889;DHT22;1453;42.708;23.282;2023-06-19T08:21:20;25.20;87.80
2889;DHT22;1453;42.708;23.282;2023-06-19T08:23:47;25.20;86.60
2889;DHT22;1453;42.708;23.282;2023-06-19T08:26:13;24.20;87.30
2889;DHT22;1453;42.708;23.282;2023-06-19T08:28:39;24.30;87.50
2889;DHT22;1453;42.708;23.282;2023-06-19T08:31:07;25.10;85.00
2889;DHT22;1453;42.708;23.282;2023-06-19T08:33:34;25.60;85.70
2889;DHT22;1453;42.708;23.282;2023-06-19T08:36:03;25.60;83.20
2889;DHT22;1453;42.708;23.282;2023-06-19T08:38:29;25.90;84.00
2889;DHT22;1453;42.708;23.282;2023-06-19T08:40:55;26.40;82.10
2889;DHT22;1453;42.708;23.282;2023-06-19T08:43:21;25.70;81.30
2889;DHT22;1453;42.708;23.282;2023-06-19T08:48:35;25.30;79.00
2889;DHT22;1453;42.708;23.282;2023-06-19T08:51:02;23.90;82.00
2889;DHT22;1453;42.708;23.282;2023-06-19T08:53:32;24.40;85.50
2889;DHT22;1453;42.708;23.282;2023-06-19T08:55:59;25.20;83.00
2889;DHT22;1453;42.708;23.282;2023-06-19T08:58:25;25.00;84.40
2889;DHT22;1453;42.708;23.282;2023-06-19T09:00:51;26.20;82.00
2889;DHT22;1453;42.708;23.282;2023-06-19T09:03:21;26.80;76.00
2889;DHT22;1453;42.708;23.282;2023-06-19T09:05:48;25.90;75.80
2889;DHT22;1453;42.708;23.282;2023-06-19T09:08:18;25.90;75.50
2889;DHT22;1453;42.708;23.282;2023-06-19T09:10:58;25.90;77.40
2889;DHT22;1453;42.708;23.282;2023-06-19T09:13:26;26.60;75.80
2889;DHT22;1453;42.708;23.282;2023-06-19T09:16:12;26.50;76.80
2889;DHT22;1453;42.708;23.282;2023-06-19T09:18:46;26.10;75.20
2889;DHT22;1453;42.708;23.282;2023-06-19T09:21:20;26.80;71.40
2889;DHT22;1453;42.708;23.282;2023-06-19T09:23:50;27.20;69.50
2889;DHT22;1453;42.708;23.282;2023-06-19T09:26:19;27.30;70.50
2889;DHT22;1453;42.708;23.282;2023-06-19T09:28:46;27.70;69.20
2889;DHT22;1453;42.708;23.282;2023-06-19T09:31:12;27.50;65.80
2889;DHT22;1453;42.708;23.282;2023-06-19T09:33:39;27.60;69.10
2889;DHT22;1453;42.708;23.282;2023-06-19T09:36:06;27.20;68.30
2889;DHT22;1453;42.708;23.282;2023-06-19T09:38:35;27.40;71.90
2889;DHT22;1453;42.708;23.282;2023-06-19T09:41:04;27.10;70.70
2889;DHT22;1453;42.708;23.282;2023-06-19T09:43:54;26.00;71.50
2889;DHT22;1453;42.708;23.282;2023-06-19T09:46:29;26.70;71.40
2889;DHT22;1453;42.708;23.282;2023-06-19T09:49:00;26.80;70.40
2889;DHT22;1453;42.708;23.282;2023-06-19T09:51:31;26.70;73.20
2889;DHT22;1453;42.708;23.282;2023-06-19T09:53:59;26.40;72.50
2889;DHT22;1453;42.708;23.282;2023-06-19T09:56:27;27.10;71.50
2889;DHT22;1453;42.708;23.282;2023-06-19T09:58:56;27.30;69.30
2889;DHT22;1453;42.708;23.282;2023-06-19T10:01:29;27.30;69.80
2889;DHT22;1453;42.708;23.282;2023-06-19T10:04:07;27.70;69.20
2889;DHT22;1453;42.708;23.282;2023-06-19T10:06:43;27.60;68.00
2889;DHT22;1453;42.708;23.282;2023-06-19T10:09:09;27.30;69.30
2889;DHT22;1453;42.708;23.282;2023-06-19T10:11:51;27.60;68.60
2889;DHT22;1453;42.708;23.282;2023-06-19T10:14:21;28.00;68.70
2889;DHT22;1453;42.708;23.282;2023-06-19T10:16:48;27.10;66.00
2889;DHT22;1453;42.708;23.282;2023-06-19T10:19:21;26.80;69.90
2889;DHT22;1453;42.708;23.282;2023-06-19T10:21:49;27.10;67.70
2889;DHT22;1453;42.708;23.282;2023-06-19T10:24:19;27.60;67.40
2889;DHT22;1453;42.708;23.282;2023-06-19T10:26:58;28.10;67.50
2889;DHT22;1453;42.708;23.282;2023-06-19T10:29:37;28.10;67.50
2889;DHT22;1453;42.708;23.282;2023-06-19T10:32:03;28.50;68.00
2889;DHT22;1453;42.708;23.282;2023-06-19T10:34:36;28.40;67.20
2889;DHT22;1453;42.708;23.282;2023-06-19T10:37:02;27.80;66.70
2889;DHT22;1453;42.708;23.282;2023-06-19T10:39:29;27.80;66.70
2889;DHT22;1453;42.708;23.282;2023-06-19T10:41:55;27.70;68.10
2889;DHT22;1453;42.708;23.282;2023-06-19T10:44:23;27.50;70.00
2889;DHT22;1453;42.708;23.282;2023-06-19T10:46:52;28.10;67.70
2889;DHT22;1453;42.708;23.282;2023-06-19T10:49:18;28.70;67.40
2889;DHT22;1453;42.708;23.282;2023-06-19T10:51:44;27.60;68.30
2889;DHT22;1453;42.708;23.282;2023-06-19T10:54:10;27.10;69.10
2889;DHT22;1453;42.708;23.282;2023-06-19T10:56:37;27.50;70.10
2889;DHT22;1453;42.708;23.282;2023-06-19T10:59:07;27.50;70.30
2889;DHT22;1453;42.708;23.282;2023-06-19T11:01:47;26.70;72.00
2889;DHT22;1453;42.708;23.282;2023-06-19T11:04:16;27.00;72.20
2889;DHT22;1453;42.708;23.282;2023-06-19T11:06:43;27.80;69.60
2889;DHT22;1453;42.708;23.282;2023-06-19T11:09:11;27.00;68.10
2889;DHT22;1453;42.708;23.282;2023-06-19T11:11:46;27.50;71.70
2889;DHT22;1453;42.708;23.282;2023-06-19T11:14:15;27.90;71.60
2889;DHT22;1453;42.708;23.282;2023-06-19T11:16:44;27.80;72.10
2889;DHT22;1453;42.708;23.282;2023-06-19T11:19:22;28.20;72.30
2889;DHT22;1453;42.708;23.282;2023-06-19T11:21:51;27.70;72.10
2889;DHT22;1453;42.708;23.282;2023-06-19T11:24:18;28.00;72.30
2889;DHT22;1453;42.708;23.282;2023-06-19T11:26:49;28.20;72.40
2889;DHT22;1453;42.708;23.282;2023-06-19T11:31:46;28.00;71.70
2889;DHT22;1453;42.708;23.282;2023-06-19T11:34:13;28.20;71.50
2889;DHT22;1453;42.708;23.282;2023-06-19T11:36:40;28.50;73.10
2889;DHT22;1453;42.708;23.282;2023-06-19T11:39:11;28.40;70.50
2889;DHT22;1453;42.708;23.282;2023-06-19T11:41:43;28.40;70.50
2889;DHT22;1453;42.708;23.282;2023-06-19T11:44:09;27.70;70.00
2889;DHT22;1453;42.708;23.282;2023-06-19T11:46:35;28.90;70.90
2889;DHT22;1453;42.708;23.282;2023-06-19T11:49:12;28.80;68.70
2889;DHT22;1453;42.708;23.282;2023-06-19T11:51:43;28.30;71.00
2889;DHT22;1453;42.708;23.282;2023-06-19T11:54:11;28.20;71.40
2889;DHT22;1453;42.708;23.282;2023-06-19T11:56:38;28.30;70.90
2889;DHT22;1453;42.708;23.282;2023-06-19T11:59:05;28.50;70.10
2889;DHT22;1453;42.708;23.282;2023-06-19T12:01:32;28.60;70.40
2889;DHT22;1453;42.708;23.282;2023-06-19T12:03:59;27.50;70.20
2889;DHT22;1453;42.708;23.282;2023-06-19T12:06:26;26.90;75.30
2889;DHT22;1453;42.708;23.282;2023-06-19T12:08:53;27.70;73.40
2889;DHT22;1453;42.708;23.282;2023-06-19T12:11:19;27.30;73.60
2889;DHT22;1453;42.708;23.282;2023-06-19T12:13:45;27.30;74.80
2889;DHT22;1453;42.708;23.282;2023-06-19T12:16:11;27.30;73.80
2889;DHT22;1453;42.708;23.282;2023-06-19T12:18:37;26.30;71.00
2889;DHT22;1453;42.708;23.282;2023-06-19T12:21:03;26.20;74.70
2889;DHT22;1453;42.708;23.282;2023-06-19T12:23:29;27.00;74.40
2889;DHT22;1453;42.708;23.282;2023-06-19T12:25:55;26.70;74.60
2889;DHT22;1453;42.708;23.282;2023-06-19T12:28:22;26.90;73.90
2889;DHT22;1453;42.708;23.282;2023-06-19T12:30:48;26.70;74.30
2889;DHT22;1453;42.708;23.282;2023-06-19T12:33:17;26.50;75.50
2889;DHT22;1453;42.708;23.282;2023-06-19T12:35:44;27.40;74.20
2889;DHT22;1453;42.708;23.282;2023-06-19T12:38:10;28.30;71.10
2889;DHT22;1453;42.708;23.282;2023-06-19T12:40:37;28.50;71.60
2889;DHT22;1453;42.708;23.282;2023-06-19T12:43:03;28.60;70.70
2889;DHT22;1453;42.708;23.282;2023-06-19T12:45:29;28.30;69.50
2889;DHT22;1453;42.708;23.282;2023-06-19T12:47:55;28.40;68.20
2889;DHT22;1453;42.708;23.282;2023-06-19T12:50:20;27.80;69.20
2889;DHT22;1453;42.708;23.282;2023-06-19T12:52:46;26.80;70.70
2889;DHT22;1453;42.708;23.282;2023-06-19T12:55:12;27.30;70.60
2889;DHT22;1453;42.708;23.282;2023-06-19T12:57:38;27.20;69.80
2889;DHT22;1453;42.708;23.282;2023-06-19T13:00:09;26.70;70.50
2889;DHT22;1453;42.708;23.282;2023-06-19T13:02:37;26.20;71.80
2889;DHT22;1453;42.708;23.282;2023-06-19T13:05:11;26.80;70.10
2889;DHT22;1453;42.708;23.282;2023-06-19T13:07:37;27.40;68.80
2889;DHT22;1453;42.708;23.282;2023-06-19T13:10:03;27.60;67.70
2889;DHT22;1453;42.708;23.282;2023-06-19T13:12:31;27.90;67.60
2889;DHT22;1453;42.708;23.282;2023-06-19T13:14:58;28.10;68.30
2889;DHT22;1453;42.708;23.282;2023-06-19T13:17:24;27.90;68.70
2889;DHT22;1453;42.708;23.282;2023-06-19T13:19:50;28.10;67.20
2889;DHT22;1453;42.708;23.282;2023-06-19T13:22:15;27.50;67.00
2889;DHT22;1453;42.708;23.282;2023-06-19T13:24:41;27.20;67.10
2889;DHT22;1453;42.708;23.282;2023-06-19T13:27:07;27.20;68.00
2889;DHT22;1453;42.708;23.282;2023-06-19T13:29:33;27.30;65.90
2889;DHT22;1453;42.708;23.282;2023-06-19T13:31:59;26.80;66.60
2889;DHT22;1453;42.708;23.282;2023-06-19T13:34:26;26.80;67.10
2889;DHT22;1453;42.708;23.282;2023-06-19T13:36:52;27.20;66.60
2889;DHT22;1453;42.708;23.282;2023-06-19T13:39:17;27.20;65.80
2889;DHT22;1453;42.708;23.282;2023-06-19T13:41:45;26.90;64.00
2889;DHT22;1453;42.708;23.282;2023-06-19T13:44:12;26.60;63.70
2889;DHT22;1453;42.708;23.282;2023-06-19T13:46:38;26.70;65.40
2889;DHT22;1453;42.708;23.282;2023-06-19T13:49:04;27.10;66.40
2889;DHT22;1453;42.708;23.282;2023-06-19T13:51:30;26.90;65.80
2889;DHT22;1453;42.708;23.282;2023-06-19T13:53:56;26.80;66.00
2889;DHT22;1453;42.708;23.282;2023-06-19T13:56:22;26.60;66.10
2889;DHT22;1453;42.708;23.282;2023-06-19T13:58:49;26.40;66.30
2889;DHT22;1453;42.708;23.282;2023-06-19T14:01:15;26.30;67.50
2889;DHT22;1453;42.708;23.282;2023-06-19T14:03:41;25.90;67.40
2889;DHT22;1453;42.708;23.282;2023-06-19T14:06:07;25.90;68.00
2889;DHT22;1453;42.708;23.282;2023-06-19T14:08:33;25.90;69.00
2889;DHT22;1453;42.708;23.282;2023-06-19T14:10:58;26.10;67.40
2889;DHT22;1453;42.708;23.282;2023-06-19T14:13:24;26.00;67.20
2889;DHT22;1453;42.708;23.282;2023-06-19T14:15:50;26.10;68.00
2889;DHT22;1453;42.708;23.282;2023-06-19T14:18:17;26.20;68.00
2889;DHT22;1453;42.708;23.282;2023-06-19T14:20:43;26.00;68.10
2889;DHT22;1453;42.708;23.282;2023-06-19T14:23:09;26.20;70.10
2889;DHT22;1453;42.708;23.282;2023-06-19T14:25:35;26.60;69.50
2889;DHT22;1453;42.708;23.282;2023-06-19T14:28:00;26.60;68.70
2889;DHT22;1453;42.708;23.282;2023-06-19T14:30:26;26.50;67.50
2889;DHT22;1453;42.708;23.282;2023-06-19T14:32:52;26.40;67.10
2889;DHT22;1453;42.708;23.282;2023-06-19T14:35:18;26.20;67.00
2889;DHT22;1453;42.708;23.282;2023-06-19T14:37:44;25.80;68.10
2889;DHT22;1453;42.708;23.282;2023-06-19T14:40:10;25.80;68.10
2889;DHT22;1453;42.708;23.282;2023-06-19T14:42:36;25.90;68.30
2889;DHT22;1453;42.708;23.282;2023-06-19T14:45:02;26.00;69.10
2889;DHT22;1453;42.708;23.282;2023-06-19T14:47:28;26.00;69.10
2889;DHT22;1453;42.708;23.282;2023-06-19T14:49:57;26.10;69.70
2889;DHT22;1453;42.708;23.282;2023-06-19T14:52:22;25.80;69.50
2889;DHT22;1453;42.708;23.282;2023-06-19T14:54:48;25.80;70.70
2889;DHT22;1453;42.708;23.282;2023-06-19T14:57:14;25.70;70.80
2889;DHT22;1453;42.708;23.282;2023-06-19T14:59:40;25.70;71.80
2889;DHT22;1453;42.708;23.282;2023-06-19T15:02:06;25.70;72.60
2889;DHT22;1453;42.708;23.282;2023-06-19T15:04:36;25.60;72.70
2889;DHT22;1453;42.708;23.282;2023-06-19T15:07:03;25.80;73.30
2889;DHT22;1453;42.708;23.282;2023-06-19T15:09:29;25.80;73.60
2889;DHT22;1453;42.708;23.282;2023-06-19T15:11:54;25.90;73.50
2889;DHT22;1453;42.708;23.282;2023-06-19T15:14:20;25.70;73.50
2889;DHT22;1453;42.708;23.282;2023-06-19T15:16:46;25.60;74.00
2889;DHT22;1453;42.708;23.282;2023-06-19T15:19:12;25.60;75.10
2889;DHT22;1453;42.708;23.282;2023-06-19T15:21:41;25.70;75.50
2889;DHT22;1453;42.708;23.282;2023-06-19T15:24:07;25.60;75.60
2889;DHT22;1453;42.708;23.282;2023-06-19T15:26:34;25.60;76.90
2889;DHT22;1453;42.708;23.282;2023-06-19T15:29:01;25.70;77.20
2889;DHT22;1453;42.708;23.282;2023-06-19T15:31:28;25.40;76.50
2889;DHT22;1453;42.708;23.282;2023-06-19T18:44:57;21.20;99.90
2889;DHT22;1453;42.708;23.282;2023-06-19T18:47:23;21.30;99.90
2889;DHT22;1453;42.708;23.282;2023-06-19T18:49:49;21.30;99.90
2889;DHT22;1453;42.708;23.282;2023-06-19T18:52:17;21.30;99.90
2889;DHT22;1453;42.708;23.282;2023-06-19T18:54:46;21.30;99.90
2889;DHT22;1453;42.708;23.282;2023-06-19T18:57:12;21.30;99.90
2889;DHT22;1453;42.708;23.282;2023-06-19T18:59:37;21.30;99.90
2889;DHT22;1453;42.708;23.282;2023-06-19T19:02:04;21.20;99.90
2889;DHT22;1453;42.708;23.282;2023-06-19T19:04:33;21.10;99.90